Flight Track Log - Related Links

Times and Time Zones

All times are in EDT time to prevent confusion due to time zone crossing. See the SWA2624 flight status page for this flight to view local times or setup timezone preferences in your user account.

Time Position Orientation Groundspeed Altitude Reporting Facility
EDT Latitude Longitude Course Direction KTS MPH feet Rate Location/Type
Wed 11:54:38 PM 35.0078 -106.6922 255° West 229 264 9,000  Level Albuquerque Center
Wed 11:55:06 PM 35.0192 -106.7236 294° West 250 288 10,200 3,371 Climbing Albuquerque Center
Wed 11:56:07 PM 35.0464 -106.8214 289° West 291 335 14,000 4,082 Climbing Albuquerque Center
Wed 11:57:08 PM 35.0800 -106.9425 289° West 335 386 18,500 4,426 Climbing Albuquerque Center
Wed 11:58:09 PM 35.1081 -107.0636 286° West 333 383 23,000 3,854 Climbing Albuquerque Center
Wed 11:59:11 PM 35.1183 -107.1731 277° West 339 390 26,400 2,439 Climbing Albuquerque Center
Thu 12:00:12 AM 35.1283 -107.2864 276° West 353 406 28,000 1,623 Climbing Albuquerque Center
Thu 12:01:13 AM 35.1414 -107.4069 278° West 357 411 29,700 2,244 Climbing Albuquerque Center
Thu 12:02:15 AM 35.1556 -107.5386 278° West 358 412 32,600 2,049 Climbing Albuquerque Center
Thu 12:03:16 AM 35.1669 -107.6597 277° West 368 423 33,900 2,115 Climbing Albuquerque Center
Thu 12:04:17 AM 35.1811 -107.8028 277° West 378 435 36,900 2,213 Climbing Albuquerque Center
Thu 12:05:18 AM 35.1944 -107.9161 278° West 361 415 38,400 1,171 Climbing Albuquerque Center
Thu 12:06:20 AM 35.2075 -108.0542 277° West 363 418 39,300 780 Climbing Albuquerque Center
Thu 12:07:21 AM 35.2200 -108.1761 277° West 373 429 40,000 344 Climbing Albuquerque Center
Thu 12:08:22 AM 35.2319 -108.2983 277° West 376 433 40,000  Level Albuquerque Center
Thu 12:09:23 AM 35.2456 -108.4397 277° West 375 432 40,000  Level Albuquerque Center
Thu 12:10:24 AM 35.2572 -108.5611 277° West 375 432 40,000  Level Albuquerque Center
Thu 12:11:26 AM 35.2683 -108.6797 277° West 369 425 40,000  Level Albuquerque Center
Thu 12:12:27 AM 35.2819 -108.8214 277° West 372 428 40,000  Level Albuquerque Center
Thu 12:13:28 AM 35.2933 -108.9433 277° West 374 430 40,000  Level Albuquerque Center
Thu 12:14:29 AM 35.3044 -109.0653 276° West 375 432 40,000  Level Albuquerque Center
Thu 12:15:30 AM 35.3181 -109.2092 277° West 378 435 40,000  Level Albuquerque Center
Thu 12:16:31 AM 35.3283 -109.3308 276° West 376 433 40,000  Level Albuquerque Center
Thu 12:17:33 AM 35.3392 -109.4547 276° West 378 435 40,000  Level Albuquerque Center
Thu 12:18:34 AM 35.3506 -109.5947 276° West 373 429 40,000  Level Albuquerque Center
Thu 12:19:35 AM 35.3619 -109.7228 276° West 385 443 40,000  Level Albuquerque Center
Thu 12:20:36 AM 35.3744 -109.8683 276° West 388 447 40,000  Level Albuquerque Center
Thu 12:21:37 AM 35.3847 -109.9883 276° West 376 433 40,000  Level Albuquerque Center
Thu 12:22:38 AM 35.3942 -110.1092 276° West 373 429 40,000  Level Albuquerque Center
Thu 12:23:39 AM 35.4025 -110.2506 274° West 373 429 40,000  Level Albuquerque Center
Thu 12:24:40 AM 35.4114 -110.3711 275° West 373 429 40,000  Level Albuquerque Center
Thu 12:25:41 AM 35.4217 -110.4944 276° West 376 433 40,000 -492 Level Albuquerque Center
Thu 12:26:42 AM 35.4314 -110.6361 275° West 375 432 39,000 -934 Descending Albuquerque Center
Thu 12:27:43 AM 35.4414 -110.7592 276° West 378 435 38,100 -885 Descending Albuquerque Center
Thu 12:28:44 AM 35.4514 -110.8825 276° West 380 437 37,200 -984 Descending Albuquerque Center
Thu 12:29:45 AM 35.4619 -111.0278 275° West 381 438 36,100 -1,082 Descending Albuquerque Center
Thu 12:30:46 AM 35.4714 -111.1547 275° West 387 445 35,000 -1,033 Descending Albuquerque Center
Thu 12:31:47 AM 35.4817 -111.2828 276° West 392 451 34,000 -984 Descending Albuquerque Center
Thu 12:32:48 AM 35.4922 -111.4319 275° West 395 455 33,000 -984 Descending Albuquerque Center
Thu 12:33:49 AM 35.5022 -111.5664 275° West 398 458 32,000 -984 Descending Albuquerque Center
Thu 12:34:50 AM 35.5103 -111.6992 274° West 395 455 31,000 -934 Descending Albuquerque Center
Thu 12:35:51 AM 35.5206 -111.8353 275° West 399 459 30,100 -492 Descending Albuquerque Center
Thu 12:36:52 AM 35.5292 -111.9719 274° West 402 463 30,000 -50 Descending Albuquerque Center
Thu 12:37:52 AM 35.5383 -112.1072 275° West 402 463 30,000  Level Albuquerque Center
Thu 12:38:44 AM 35.5461 -112.2161 275° West 402 463 30,000  Level Los Angeles Center
Thu 12:39:45 AM 35.5564 -112.3808 274° West 406 467 30,000  Level Los Angeles Center
Thu 12:40:46 AM 35.5647 -112.5181 274° West 406 467 30,000  Level Los Angeles Center
Thu 12:41:48 AM 35.5733 -112.6469 275° West 411 473 30,000  Level Los Angeles Center
Thu 12:42:49 AM 35.5814 -112.7878 274° West 413 475 30,000  Level Los Angeles Center
Thu 12:43:50 AM 35.5914 -112.9569 274° West 413 475 30,000  Level Los Angeles Center
Thu 12:44:52 AM 35.5981 -113.0867 274° West 416 479 30,000  Level Los Angeles Center
Thu 12:45:53 AM 35.6072 -113.2292 275° West 418 481 30,000  Level Los Angeles Center
Thu 12:46:54 AM 35.6164 -113.3853 274° West 421 484 30,000 -295 Level Los Angeles Center
Thu 12:47:55 AM 35.6242 -113.5286 274° West 423 487 29,400 -2,195 Descending Los Angeles Center
Thu 12:48:57 AM 35.6414 -113.6669 279° West 416 479 25,500 -3,561 Descending Los Angeles Center
Thu 12:49:58 AM 35.6611 -113.7964 281° West 394 453 22,100 -3,148 Descending Los Angeles Center
Thu 12:50:59 AM 35.6789 -113.9225 280° West 380 437 19,100 -1,525 Descending Los Angeles Center
Thu 12:52:00 AM 35.7097 -114.0567 286° West 363 418 19,000 -49 Descending Los Angeles Center
Thu 12:53:02 AM 35.7544 -114.1656 297° West 355 409 19,000 -813 Level Los Angeles Center
Thu 12:53:36 AM 35.7825 -114.2350 296° West 364 419 17,700 -2,262 Descending Los Angeles Center
Thu 12:54:03 AM 35.7958 -114.2742 293° West 352 405 16,700 -3,055 Descending Los Angeles Center
Thu 12:54:31 AM 35.8200 -114.3339 297° West 346 398 14,900 -3,246 Descending Los Angeles Center
Thu 12:55:04 AM 35.8375 -114.3811 295° West 347 399 13,400 -2,754 Descending Los Angeles Center
Thu 12:55:32 AM 35.8653 -114.4381 301° West 346 398 12,100 -2,262 Descending Los Angeles Center
Thu 12:56:05 AM 35.8817 -114.4836 294° West 339 390 11,100 -1,455 Descending Los Angeles Center
Thu 12:56:38 AM 35.9056 -114.5414 297° West 309 356 10,500 -871 Descending Los Angeles Center
Thu 12:57:07 AM 35.9189 -114.5725 298° West 293 337 10,200 -1,091 Descending Los Angeles Center
Thu 12:57:33 AM 35.9375 -114.6158 298° West 270 311 9,500 -1,377 Descending Los Angeles Center
Thu 12:58:08 AM 35.9525 -114.6519 297° West 266 306 8,800 -1,600 Descending Los Angeles Center
Thu 12:58:33 AM 35.9703 -114.6953 297° West 260 299 7,900 -1,574 Descending Los Angeles Center
Thu 12:59:09 AM 35.9844 -114.7289 298° West 256 295 7,200 -986 Descending Los Angeles Center
Thu 12:59:46 AM 36.0086 -114.7914 296° West 254 292 6,700 -590 Descending Los Angeles Center
Thu 01:00:10 AM 36.0161 -114.8058 303° West 254 292 6,600 -492 Descending Los Angeles Center
Thu 01:00:47 AM 36.0367 -114.8594 295° West 214 246 6,200 -689 Descending Los Angeles Center
Thu 01:01:11 AM 36.0492 -114.8858 300° West 235 270 5,900 -800 Descending Los Angeles Center
Thu 01:01:47 AM 36.0633 -114.9222 296° West 203 234 5,400 -968 Descending Los Angeles Center
Thu 01:02:13 AM 36.0731 -114.9461 297° West 215 247 4,900 -1,082 Descending Los Angeles Center
Thu 01:02:48 AM 36.0731 -114.9856 270° West 190 219 4,300 -885 Descending Los Angeles Center
Thu 01:03:14 AM 36.0753 -115.0069 277° West 192 221 4,000 -873 Descending Los Angeles Center
Thu 01:03:43 AM 36.0728 -115.0336 263° West 166 191 3,500 -885 Descending Los Angeles Center
Thu 01:04:15 AM 36.0733 -115.0614 271° West 174 200 3,100 -727 Descending Los Angeles Center
Thu 01:04:49 AM 36.0725 -115.0922 268° West 144 166 2,700 -689 Descending Los Angeles Center
Thu 01:05:16 AM 36.0736 -115.1081 275° West 156 180 2,400 -416 Descending Los Angeles Center
Thu 01:06:30 AM 36.0736 -115.1469 270° West 146 168 2,000 -324 Descending Los Angeles Center

Login

Don't have an account? Register now (free) for customized features, flight alerts, and more!